Time;durP1;ratioP1;P1;durP2;ratioP2;P2;SDS_P1;SDS_P2;PMS_P1;PMS_P2;Temp;Humidity;BMP_temperature;BMP_pressure;BME280_temperature;BME280_humidity;BME280_pressure;Samples;Min_cycle;Max_cycle;Signal;HPM_P1;HPM_P2
2023/10/17 00:01:19;;;;;;;2.87;2.50;;;8.10;99.90;;;;;;4965377;28;20470;-75
2023/10/17 00:03:45;;;;;;;3.50;2.90;;;8.10;99.90;;;;;;4990380;28;20461;-75
2023/10/17 00:06:16;;;;;;;4.50;2.50;;;8.10;99.90;;;;;;4977848;28;20830;-75
2023/10/17 00:08:50;;;;;;;3.80;2.70;;;8.10;99.90;;;;;;4981881;28;20540;-75
2023/10/17 00:11:17;;;;;;;3.50;2.60;;;8.10;99.90;;;;;;4974206;28;20889;-75
2023/10/17 00:13:59;;;;;;;4.40;2.90;;;8.00;99.90;;;;;;4983678;28;20473;-75
2023/10/17 00:16:27;;;;;;;4.90;2.90;;;8.10;99.90;;;;;;4999251;28;20464;-74
2023/10/17 00:18:52;;;;;;;4.07;2.33;;;8.10;99.90;;;;;;5001342;28;20476;-75
2023/10/17 00:21:26;;;;;;;3.87;2.87;;;8.10;99.90;;;;;;4988259;28;20839;-75
2023/10/17 00:23:52;;;;;;;4.03;2.90;;;8.10;99.90;;;;;;4997575;28;20217;-75
2023/10/17 00:26:18;;;;;;;4.40;2.87;;;7.90;99.90;;;;;;4996204;28;20967;-75
2023/10/17 00:28:49;;;;;;;4.57;2.90;;;7.80;99.90;;;;;;4982071;28;20479;-75
2023/10/17 00:31:15;;;;;;;5.23;3.37;;;7.90;99.90;;;;;;4988838;28;20453;-76
2023/10/17 00:33:41;;;;;;;3.83;2.87;;;7.80;99.90;;;;;;4997699;28;20576;-74
2023/10/17 00:36:14;;;;;;;3.50;2.50;;;7.70;99.90;;;;;;4982017;28;20536;-73
2023/10/17 00:38:43;;;;;;;3.13;2.83;;;7.70;99.90;;;;;;4981599;28;20468;-75
2023/10/17 00:41:32;;;;;;;2.57;2.37;;;7.80;99.90;;;;;;4992880;28;20481;-75
2023/10/17 00:43:58;;;;;;;13.50;2.87;;;7.80;99.90;;;;;;4984780;28;20476;-75
2023/10/17 00:46:24;;;;;;;4.53;2.77;;;7.80;99.90;;;;;;4985213;28;20456;-75
2023/10/17 00:48:51;;;;;;;2.73;2.17;;;7.80;99.90;;;;;;4992535;28;20226;-75
2023/10/17 00:51:21;;;;;;;2.67;2.40;;;7.80;99.90;;;;;;4997874;28;20935;-75
2023/10/17 00:53:46;;;;;;;4.63;2.43;;;7.70;99.90;;;;;;4998255;28;20472;-75
2023/10/17 00:56:15;;;;;;;4.63;2.60;;;7.70;99.90;;;;;;4997037;28;20457;-75
2023/10/17 00:58:42;;;;;;;4.17;2.87;;;7.70;99.90;;;;;;4999955;28;20456;-75
2023/10/17 01:01:20;;;;;;;4.20;2.40;;;7.70;99.90;;;;;;4996130;28;20465;-75
2023/10/17 01:03:47;;;;;;;3.10;2.80;;;7.60;99.90;;;;;;4992364;28;20470;-74
2023/10/17 01:08:58;;;;;;;4.30;2.50;;;7.40;99.90;;;;;;5007951;28;20475;-75
2023/10/17 01:11:33;;;;;;;4.53;2.37;;;7.50;99.90;;;;;;4971917;28;20454;-75
2023/10/17 01:14:00;;;;;;;2.87;2.53;;;7.40;99.90;;;;;;4973161;28;20461;-75
2023/10/17 01:16:26;;;;;;;2.87;2.60;;;7.40;99.90;;;;;;4999832;28;20456;-75
2023/10/17 01:18:53;;;;;;;3.77;2.60;;;7.40;99.90;;;;;;5001010;28;20461;-75
2023/10/17 01:21:21;;;;;;;2.90;2.17;;;7.40;99.90;;;;;;4993236;28;20222;-75
2023/10/17 01:23:48;;;;;;;5.07;2.50;;;7.20;99.90;;;;;;4991691;28;20469;-76
2023/10/17 01:26:21;;;;;;;3.07;2.77;;;7.30;99.90;;;;;;4992236;28;20489;-75
2023/10/17 01:28:51;;;;;;;3.00;2.63;;;7.30;99.90;;;;;;5001232;28;20466;-74
2023/10/17 01:31:24;;;;;;;3.90;2.27;;;7.30;99.90;;;;;;4976263;28;20467;-75
2023/10/17 01:33:52;;;;;;;2.10;1.90;;;7.30;99.90;;;;;;4993175;28;20990;-74
2023/10/17 01:36:19;;;;;;;4.37;2.73;;;7.20;99.90;;;;;;5002196;28;20989;-75
2023/10/17 01:38:45;;;;;;;4.13;2.77;;;7.10;99.90;;;;;;4996627;28;20469;-74
2023/10/17 01:41:12;;;;;;;2.70;2.40;;;7.20;99.90;;;;;;4989836;28;20560;-74
2023/10/17 01:43:48;;;;;;;3.13;2.30;;;7.10;99.90;;;;;;4989712;28;20465;-74
2023/10/17 01:46:22;;;;;;;2.57;2.37;;;7.10;99.90;;;;;;4988121;28;20457;-74
2023/10/17 01:48:49;;;;;;;1.90;1.60;;;7.20;99.90;;;;;;5008042;28;20482;-75
2023/10/17 01:51:16;;;;;;;3.17;2.43;;;7.10;99.90;;;;;;4989068;28;20458;-75
2023/10/17 01:53:45;;;;;;;4.80;2.30;;;7.10;99.90;;;;;;5001565;28;20502;-74
2023/10/17 01:56:16;;;;;;;4.00;3.10;;;7.10;99.90;;;;;;5001763;28;20459;-75
2023/10/17 01:58:50;;;;;;;6.90;2.47;;;7.10;99.90;;;;;;4988472;28;20456;-74
2023/10/17 02:01:24;;;;;;;2.63;2.43;;;7.10;99.90;;;;;;4973258;28;20488;-74
2023/10/17 02:04:12;;;;;;;2.73;2.17;;;7.10;99.90;;;;;;5003650;28;20906;-74
2023/10/17 02:06:42;;;;;;;6.00;2.53;;;7.10;99.90;;;;;;5004004;28;20467;-74
2023/10/17 02:12:04;;;;;;;9.30;2.43;;;7.10;99.90;;;;;;4980614;28;20964;-74
2023/10/17 02:14:29;;;;;;;4.37;2.17;;;7.10;99.90;;;;;;4999974;28;20468;-74
2023/10/17 02:16:55;;;;;;;3.60;2.20;;;7.00;99.90;;;;;;5003543;28;20452;-74
2023/10/17 02:19:25;;;;;;;3.60;2.20;;;7.00;99.90;;;;;;4989469;28;20437;-74
2023/10/17 02:21:54;;;;;;;3.80;2.80;;;6.80;99.90;;;;;;4984074;28;20234;-73
2023/10/17 02:24:20;;;;;;;2.90;2.20;;;6.90;99.90;;;;;;4998979;28;20465;-73
2023/10/17 02:26:56;;;;;;;3.40;2.40;;;6.80;99.90;;;;;;4989301;28;20783;-73
2023/10/17 02:29:26;;;;;;;2.80;2.20;;;6.70;99.90;;;;;;4988296;28;20296;-74
2023/10/17 02:31:54;;;;;;;3.03;2.70;;;6.70;99.90;;;;;;4989100;28;20449;-74
2023/10/17 02:34:29;;;;;;;3.03;2.13;;;6.80;99.90;;;;;;4987683;28;20500;-75
2023/10/17 02:36:56;;;;;;;3.03;2.50;;;6.80;99.90;;;;;;4986442;28;20567;-73
2023/10/17 02:39:22;;;;;;;2.60;1.70;;;6.80;99.90;;;;;;4988502;28;20540;-76
2023/10/17 02:41:57;;;;;;;4.27;2.60;;;6.80;99.90;;;;;;4983615;28;20559;-72
2023/10/17 02:44:24;;;;;;;2.40;1.93;;;6.80;99.90;;;;;;4979809;28;20256;-74
2023/10/17 02:46:51;;;;;;;3.53;2.70;;;6.80;99.90;;;;;;4982499;28;20976;-74
2023/10/17 02:49:17;;;;;;;5.57;2.60;;;6.80;99.90;;;;;;4976763;28;20633;-74
2023/10/17 02:51:43;;;;;;;2.13;1.63;;;6.80;99.90;;;;;;4964766;28;20604;-74
2023/10/17 02:54:14;;;;;;;3.43;2.17;;;6.80;99.90;;;;;;4980152;28;20218;-74
2023/10/17 02:56:46;;;;;;;2.60;2.17;;;6.80;99.90;;;;;;4983475;28;20229;-73
2023/10/17 02:59:13;;;;;;;2.43;2.23;;;6.80;99.90;;;;;;4979727;28;20478;-74
2023/10/17 03:01:40;;;;;;;3.27;2.60;;;6.80;99.90;;;;;;4967871;28;20493;-75
2023/10/17 03:04:12;;;;;;;2.10;1.90;;;6.70;99.90;;;;;;4980200;28;21014;-74
2023/10/17 03:06:40;;;;;;;2.20;2.00;;;6.60;99.90;;;;;;4987834;28;20461;-73
2023/10/17 03:09:16;;;;;;;2.90;2.67;;;6.50;99.90;;;;;;4993745;28;20453;-74
2023/10/17 03:17:15;;;;;;;6.97;2.47;;;6.50;99.90;;;;;;4993638;28;20454;-74
2023/10/17 03:19:41;;;;;;;2.40;1.60;;;6.60;99.90;;;;;;4993493;28;20514;-74
2023/10/17 03:22:16;;;;;;;1.80;1.60;;;6.60;99.90;;;;;;4985838;28;20466;-74
2023/10/17 03:24:44;;;;;;;3.80;2.30;;;6.70;99.90;;;;;;4998283;28;20221;-73
2023/10/17 03:27:23;;;;;;;2.27;1.90;;;6.70;99.90;;;;;;4984240;28;20472;-74
2023/10/17 03:29:49;;;;;;;3.57;1.90;;;6.70;99.90;;;;;;4984414;28;20560;-75
2023/10/17 03:32:15;;;;;;;2.00;1.80;;;6.70;99.90;;;;;;4978488;28;20468;-74
2023/10/17 03:34:45;;;;;;;2.63;2.43;;;6.70;99.90;;;;;;4985900;28;20468;-74
2023/10/17 03:39:57;;;;;;;1.90;1.63;;;6.70;99.90;;;;;;5003624;28;20512;-73
2023/10/17 03:44:56;;;;;;;5.37;2.53;;;6.80;99.90;;;;;;5017112;28;20515;-72
2023/10/17 03:47:22;;;;;;;5.60;2.30;;;6.80;99.90;;;;;;4977423;28;20465;-73
2023/10/17 03:49:48;;;;;;;5.20;2.57;;;6.80;99.90;;;;;;4989930;28;20222;-74
2023/10/17 03:52:16;;;;;;;4.90;2.80;;;6.80;99.90;;;;;;4981952;28;20390;-75
2023/10/17 03:54:44;;;;;;;9.23;2.30;;;6.70;99.90;;;;;;5002786;28;20531;-74
2023/10/17 03:57:16;;;;;;;4.00;2.73;;;6.70;99.90;;;;;;4982004;28;20870;-74
2023/10/17 03:59:50;;;;;;;3.50;2.43;;;6.80;99.90;;;;;;5001404;28;20552;-73
2023/10/17 04:02:20;;;;;;;3.10;2.30;;;6.80;99.90;;;;;;4987329;28;20478;-73
2023/10/17 04:04:49;;;;;;;2.67;2.13;;;6.80;99.90;;;;;;4993372;28;20485;-73
2023/10/17 04:07:16;;;;;;;3.07;2.57;;;6.80;99.90;;;;;;5000371;28;20473;-72
2023/10/17 04:12:38;;;;;;;2.10;1.80;;;6.90;99.90;;;;;;4979906;28;20452;-73
2023/10/17 04:15:09;;;;;;;2.57;2.33;;;6.90;99.90;;;;;;4982838;28;20553;-72
2023/10/17 04:17:36;;;;;;;2.00;1.80;;;6.90;99.90;;;;;;5001955;28;20465;-73
2023/10/17 04:20:12;;;;;;;2.10;1.80;;;6.90;99.90;;;;;;4986597;28;20470;-73
2023/10/17 04:22:43;;;;;;;3.37;1.93;;;6.90;99.90;;;;;;4994853;28;20583;-73
2023/10/17 04:27:54;;;;;;;2.03;1.77;;;6.90;99.90;;;;;;4988341;28;20539;-74
2023/10/17 04:30:29;;;;;;;4.67;2.60;;;6.90;99.90;;;;;;4987265;28;20458;-74
2023/10/17 04:33:05;;;;;;;3.47;2.40;;;6.90;99.90;;;;;;5007533;28;20447;-74
2023/10/17 04:35:32;;;;;;;2.60;2.37;;;6.90;99.90;;;;;;4977648;28;20452;-74
2023/10/17 04:38:09;;;;;;;2.30;2.07;;;6.80;99.90;;;;;;4997721;28;20440;-73
2023/10/17 04:40:42;;;;;;;3.80;2.27;;;6.60;99.90;;;;;;4987505;28;20481;-73
2023/10/17 04:45:44;;;;;;;3.80;2.13;;;6.70;99.90;;;;;;5009060;28;20464;-73
2023/10/17 04:48:10;;;;;;;2.50;2.10;;;6.70;99.90;;;;;;5010003;28;20448;-73
2023/10/17 04:50:45;;;;;;;2.63;2.10;;;6.70;99.90;;;;;;4993226;28;20464;-72
2023/10/17 04:53:25;;;;;;;1.60;1.37;;;6.70;99.90;;;;;;5006486;28;20460;-73
2023/10/17 05:01:35;;;;;;;2.00;1.90;;;6.70;99.90;;;;;;4982953;28;20489;-73
2023/10/17 06:18:17;;;;;;;5.53;3.00;;;6.90;99.90;;;;;;4991865;28;20564;-73
2023/10/17 06:21:06;;;;;;;7.60;2.90;;;6.90;99.90;;;;;;5001802;28;20484;-73
2023/10/17 06:34:18;;;;;;;4.43;2.20;;;6.90;99.90;;;;;;5005546;28;20512;-74
2023/10/17 06:36:44;;;;;;;3.93;2.50;;;7.00;99.90;;;;;;4984957;28;20473;-74
2023/10/17 06:39:19;;;;;;;3.50;2.30;;;6.90;99.90;;;;;;4998821;28;20460;-72
2023/10/17 06:41:50;;;;;;;3.77;2.10;;;7.00;99.90;;;;;;4994947;28;20464;-74
2023/10/17 06:44:21;;;;;;;2.20;2.00;;;6.90;99.90;;;;;;4986696;28;20501;-72
2023/10/17 06:47:08;;;;;;;3.47;2.07;;;6.90;99.90;;;;;;5000378;28;20449;-72
2023/10/17 06:54:58;;;;;;;3.00;2.80;;;7.00;99.90;;;;;;4985796;28;20226;-74
2023/10/17 06:57:24;;;;;;;2.77;2.17;;;7.00;99.90;;;;;;4979472;28;20457;-72
2023/10/17 06:59:52;;;;;;;3.10;2.37;;;7.00;99.90;;;;;;4987288;28;20462;-75
2023/10/17 07:02:28;;;;;;;2.23;2.03;;;7.00;99.90;;;;;;4982039;28;20484;-74
2023/10/17 07:05:00;;;;;;;3.77;2.00;;;7.00;99.90;;;;;;5019697;28;20946;-72
2023/10/17 07:07:39;;;;;;;3.77;2.27;;;7.00;99.90;;;;;;4985461;28;20526;-72
2023/10/17 07:10:35;;;;;;;2.93;2.57;;;7.00;99.90;;;;;;5005247;28;20564;-74
2023/10/17 07:13:41;;;;;;;2.80;1.73;;;7.00;99.90;;;;;;4994086;28;20470;-74
2023/10/17 07:16:16;;;;;;;3.03;2.37;;;7.00;99.90;;;;;;4979169;28;20561;-75
2023/10/17 07:18:51;;;;;;;2.63;2.30;;;7.00;99.90;;;;;;4990561;28;20543;-73
2023/10/17 07:21:23;;;;;;;2.77;2.20;;;7.00;99.90;;;;;;4997092;28;20504;-74
2023/10/17 07:23:49;;;;;;;3.30;2.77;;;7.00;99.90;;;;;;4992849;28;20479;-72
2023/10/17 07:26:17;;;;;;;2.40;1.90;;;7.00;99.90;;;;;;4986786;28;20492;-73
2023/10/17 07:28:50;;;;;;;2.50;2.27;;;7.10;99.90;;;;;;4996404;28;20457;-74
2023/10/17 07:31:20;;;;;;;4.30;2.60;;;7.10;99.90;;;;;;5003685;28;20466;-73
2023/10/17 07:34:05;;;;;;;3.00;2.10;;;7.10;99.90;;;;;;4982352;28;21043;-74
2023/10/17 07:36:34;;;;;;;3.57;2.43;;;7.10;99.90;;;;;;4989293;28;20472;-74
2023/10/17 07:39:22;;;;;;;3.50;2.20;;;7.10;99.90;;;;;;4992579;28;20462;-73
2023/10/17 07:41:55;;;;;;;7.40;4.67;;;7.10;99.90;;;;;;4975475;28;20482;-74
2023/10/17 07:44:26;;;;;;;10.90;6.80;;;7.10;99.90;;;;;;4997525;28;20530;-73
2023/10/17 07:49:37;;;;;;;22.77;10.50;;;7.10;99.90;;;;;;4992810;28;20465;-74
2023/10/17 07:52:15;;;;;;;33.20;15.40;;;7.00;99.90;;;;;;4987400;28;20520;-73
2023/10/17 07:55:17;;;;;;;29.97;14.20;;;7.10;99.90;;;;;;4978064;28;20465;-73
2023/10/17 07:57:44;;;;;;;19.20;8.50;;;7.10;99.90;;;;;;4970255;28;20450;-73
2023/10/17 08:00:33;;;;;;;10.40;5.23;;;7.10;99.90;;;;;;5000976;28;20478;-74
2023/10/17 08:03:09;;;;;;;5.33;4.03;;;7.20;99.90;;;;;;4998931;28;20458;-72
2023/10/17 08:05:38;;;;;;;5.60;4.40;;;7.20;99.90;;;;;;4995522;28;20488;-74
2023/10/17 08:08:08;;;;;;;5.53;4.30;;;7.20;99.90;;;;;;4992718;28;20462;-74
2023/10/17 08:10:38;;;;;;;7.33;5.50;;;7.20;99.90;;;;;;5013225;28;20503;-75
2023/10/17 08:13:07;;;;;;;6.00;3.83;;;7.10;99.90;;;;;;4991368;28;20520;-74
2023/10/17 08:15:38;;;;;;;3.20;2.70;;;7.20;99.90;;;;;;5004117;28;20486;-75
2023/10/17 08:18:14;;;;;;;4.43;3.33;;;7.20;99.90;;;;;;4992477;28;20476;-75
2023/10/17 08:23:26;;;;;;;6.87;3.10;;;7.30;99.90;;;;;;5004503;28;20877;-74
2023/10/17 08:25:59;;;;;;;4.30;3.07;;;7.30;99.90;;;;;;5004313;28;20453;-73
2023/10/17 08:28:33;;;;;;;5.83;2.80;;;7.30;99.90;;;;;;4992575;28;20462;-74
2023/10/17 08:34:04;;;;;;;3.80;3.00;;;7.40;99.90;;;;;;4987624;28;20464;-74
2023/10/17 08:36:46;;;;;;;3.63;2.43;;;7.40;99.90;;;;;;4973611;28;20445;-75
2023/10/17 08:42:05;;;;;;;4.13;2.97;;;7.40;99.90;;;;;;4988825;28;20527;-74
2023/10/17 08:44:37;;;;;;;5.33;2.73;;;7.40;99.90;;;;;;5001702;28;20487;-76
2023/10/17 08:47:04;;;;;;;3.30;3.00;;;7.40;99.90;;;;;;5002879;28;20876;-74
2023/10/17 08:49:31;;;;;;;3.40;2.50;;;7.50;99.90;;;;;;5006366;28;20457;-75
2023/10/17 08:51:58;;;;;;;3.00;2.47;;;7.50;99.90;;;;;;5014872;28;20509;-74
2023/10/17 08:54:29;;;;;;;4.27;2.67;;;7.50;99.90;;;;;;4996782;28;20441;-74
2023/10/17 08:57:03;;;;;;;4.10;2.20;;;7.60;99.90;;;;;;5024941;28;20488;-74
2023/10/17 09:02:29;;;;;;;;;;;;;;;;;;;;;
2023/10/17 09:05:18;;;;;;;3.37;2.27;;;7.50;99.90;;;;;;4992010;28;20550;-74
2023/10/17 09:07:49;;;;;;;2.50;2.10;;;7.60;99.90;;;;;;4987595;28;20471;-75
2023/10/17 09:10:18;;;;;;;3.27;2.67;;;7.70;99.90;;;;;;4982640;28;20470;-74
2023/10/17 09:13:14;;;;;;;3.93;2.20;;;7.70;99.90;;;;;;4989694;28;20461;-75
2023/10/17 09:15:30;;;;;;;3.30;2.40;;;7.70;99.90;;;;;;4987656;28;20454;-74
2023/10/17 09:18:08;;;;;;;3.47;2.77;;;7.70;99.90;;;;;;4985321;28;20489;-74
2023/10/17 09:20:39;;;;;;;3.13;2.30;;;7.70;99.90;;;;;;4998257;28;20455;-73
2023/10/17 09:23:23;;;;;;;4.60;2.47;;;7.80;99.90;;;;;;5004510;28;20541;-75
2023/10/17 09:25:54;;;;;;;5.03;3.23;;;7.80;99.90;;;;;;4982612;28;20466;-75
2023/10/17 09:28:22;;;;;;;3.13;2.50;;;7.80;99.90;;;;;;4996930;28;20475;-74
2023/10/17 09:30:58;;;;;;;4.27;2.73;;;7.80;99.90;;;;;;5007166;28;20472;-74
2023/10/17 09:33:31;;;;;;;4.07;2.80;;;7.80;99.90;;;;;;5015555;28;20437;-74
2023/10/17 09:35:59;;;;;;;2.57;2.17;;;7.90;99.90;;;;;;4981559;28;20461;-74
2023/10/17 09:38:28;;;;;;;4.30;3.07;;;7.90;99.90;;;;;;4989656;28;20452;-74
2023/10/17 09:40:59;;;;;;;3.17;2.87;;;7.90;99.90;;;;;;4989887;28;20473;-74
2023/10/17 09:43:25;;;;;;;6.10;3.30;;;7.90;99.90;;;;;;4976693;28;20535;-75
2023/10/17 09:45:55;;;;;;;4.60;2.60;;;7.90;99.90;;;;;;5002648;28;20609;-74
2023/10/17 09:48:32;;;;;;;4.00;2.30;;;7.90;99.90;;;;;;4987205;28;20284;-74
2023/10/17 09:51:01;;;;;;;6.20;2.70;;;7.90;99.90;;;;;;4995686;28;20463;-74
2023/10/17 09:53:30;;;;;;;2.73;2.50;;;7.90;99.90;;;;;;4997701;28;20509;-74
2023/10/17 09:56:00;;;;;;;3.70;2.77;;;7.90;99.90;;;;;;5018479;28;20456;-75
2023/10/17 09:58:33;;;;;;;3.27;2.67;;;7.90;99.90;;;;;;5010405;28;20950;-75
2023/10/17 10:01:10;;;;;;;4.43;2.77;;;8.00;99.90;;;;;;5010177;28;20469;-75
2023/10/17 10:03:36;;;;;;;4.23;2.93;;;8.00;99.90;;;;;;4998485;28;20463;-75
2023/10/17 10:06:21;;;;;;;3.63;2.90;;;8.00;99.90;;;;;;5008749;28;20500;-74
2023/10/17 10:08:47;;;;;;;3.33;3.03;;;8.00;99.90;;;;;;5008315;28;20452;-74
2023/10/17 10:11:14;;;;;;;5.73;3.17;;;8.00;99.90;;;;;;5007944;28;20918;-74
2023/10/17 10:14:03;;;;;;;5.13;3.83;;;8.00;99.90;;;;;;5009663;28;20472;-74
2023/10/17 10:16:53;;;;;;;3.80;3.50;;;8.10;99.90;;;;;;5023934;28;20951;-73
2023/10/17 10:19:21;;;;;;;7.17;5.23;;;8.10;99.90;;;;;;5006063;28;20544;-74
2023/10/17 10:22:00;;;;;;;8.47;5.90;;;8.10;99.90;;;;;;5000749;28;20456;-73
2023/10/17 10:24:32;;;;;;;10.33;5.47;;;8.10;99.90;;;;;;4989749;28;20536;-73
2023/10/17 10:27:11;;;;;;;6.93;5.40;;;8.20;99.90;;;;;;4996144;28;20527;-73
2023/10/17 10:29:37;;;;;;;8.83;4.47;;;8.20;99.90;;;;;;4987414;28;20469;-75
2023/10/17 10:32:06;;;;;;;5.40;3.90;;;8.20;99.90;;;;;;4987579;28;20457;-74
2023/10/17 10:34:36;;;;;;;6.13;3.57;;;8.30;99.90;;;;;;5002054;28;20453;-75
2023/10/17 10:37:09;;;;;;;5.73;3.57;;;8.30;99.90;;;;;;4992051;28;20476;-75
2023/10/17 10:39:37;;;;;;;4.20;3.83;;;8.30;99.90;;;;;;4998180;28;20457;-75
2023/10/17 10:42:07;;;;;;;3.73;3.10;;;8.30;99.90;;;;;;4987899;28;20994;-74
2023/10/17 10:44:42;;;;;;;4.40;3.43;;;8.30;99.90;;;;;;4992015;28;20457;-75
2023/10/17 10:47:08;;;;;;;6.07;2.97;;;8.40;99.90;;;;;;4995987;28;20942;-75
2023/10/17 10:49:34;;;;;;;3.70;3.37;;;8.40;99.90;;;;;;4994500;28;20484;-75
2023/10/17 10:52:00;;;;;;;6.53;3.47;;;8.40;99.90;;;;;;4991914;28;20457;-76
2023/10/17 10:54:48;;;;;;;4.67;3.30;;;8.40;99.90;;;;;;4999843;28;20595;-76
2023/10/17 10:57:14;;;;;;;3.80;3.27;;;8.40;99.90;;;;;;4989611;28;20362;-75
2023/10/17 10:59:49;;;;;;;4.40;3.57;;;8.50;99.90;;;;;;5000104;28;20544;-75
2023/10/17 11:02:15;;;;;;;4.53;3.23;;;8.50;99.90;;;;;;4998990;28;20261;-76
2023/10/17 11:04:41;;;;;;;7.83;4.27;;;8.60;99.90;;;;;;5006738;28;20562;-76
2023/10/17 11:07:27;;;;;;;3.70;2.93;;;8.60;99.90;;;;;;5004477;28;20237;-75
2023/10/17 11:10:06;;;;;;;3.37;2.40;;;8.60;99.90;;;;;;4982375;28;20486;-75
2023/10/17 11:12:35;;;;;;;3.20;2.70;;;8.70;99.90;;;;;;4990608;28;20453;-75
2023/10/17 11:15:19;;;;;;;3.33;2.47;;;8.70;99.90;;;;;;4989636;28;20458;-73
2023/10/17 11:17:45;;;;;;;4.50;3.00;;;8.70;99.90;;;;;;4991820;28;20514;-74
2023/10/17 11:20:14;;;;;;;2.93;2.10;;;8.80;99.90;;;;;;4991490;28;20473;-75
2023/10/17 11:22:45;;;;;;;7.93;2.87;;;8.90;99.90;;;;;;5009322;28;20249;-75
2023/10/17 11:28:07;;;;;;;7.10;3.03;;;9.10;99.90;;;;;;4994681;28;20654;-73
2023/10/17 11:30:42;;;;;;;3.07;2.60;;;9.10;99.90;;;;;;5008676;28;20457;-74
2023/10/17 11:33:14;;;;;;;3.37;2.40;;;9.10;99.90;;;;;;4999653;28;20473;-74
2023/10/17 11:35:51;;;;;;;6.10;2.50;;;9.00;99.90;;;;;;4988561;28;20462;-74
2023/10/17 11:38:37;;;;;;;3.20;2.07;;;9.00;99.90;;;;;;4987983;28;20461;-74
2023/10/17 11:41:04;;;;;;;3.47;2.60;;;9.00;99.90;;;;;;5001312;28;20497;-74
2023/10/17 11:43:34;;;;;;;3.20;2.70;;;9.10;99.90;;;;;;4989263;28;20537;-74
2023/10/17 11:46:04;;;;;;;3.97;2.87;;;9.10;99.90;;;;;;4986667;28;20460;-75
2023/10/17 11:48:33;;;;;;;2.97;2.67;;;9.10;99.90;;;;;;4989785;28;20452;-74
2023/10/17 11:51:17;;;;;;;2.87;2.50;;;9.10;99.90;;;;;;4991147;28;20949;-74
2023/10/17 11:54:08;;;;;;;3.23;2.60;;;9.10;99.90;;;;;;4987793;28;20464;-75
2023/10/17 11:56:39;;;;;;;2.90;2.37;;;9.10;99.90;;;;;;4982931;28;20461;-73
2023/10/17 11:59:09;;;;;;;3.60;2.90;;;9.10;99.90;;;;;;4977552;28;20468;-74
2023/10/17 12:01:35;;;;;;;2.43;2.00;;;9.20;99.90;;;;;;4979872;28;20474;-73
2023/10/17 12:04:06;;;;;;;5.20;2.90;;;9.20;99.90;;;;;;4981582;28;20466;-73
2023/10/17 12:06:33;;;;;;;2.73;2.53;;;9.20;99.90;;;;;;4976153;28;20227;-73
2023/10/17 12:08:59;;;;;;;2.73;2.50;;;9.20;99.90;;;;;;4980762;28;20473;-73
2023/10/17 12:11:25;;;;;;;5.37;3.10;;;9.10;99.90;;;;;;4977566;28;20468;-74
2023/10/17 12:13:54;;;;;;;7.30;4.90;;;9.10;99.90;;;;;;4983145;28;20469;-73
2023/10/17 12:16:23;;;;;;;6.43;3.97;;;9.20;99.90;;;;;;4974668;28;20249;-74
2023/10/17 12:18:51;;;;;;;4.43;3.90;;;9.20;99.90;;;;;;5011421;28;21041;-73
2023/10/17 12:21:17;;;;;;;6.13;3.70;;;9.20;99.90;;;;;;4976518;28;20480;-74
2023/10/17 12:23:42;;;;;;;8.90;5.10;;;9.20;99.90;;;;;;4980719;28;20552;-74
2023/10/17 12:26:13;;;;;;;4.40;3.00;;;9.20;99.90;;;;;;4970576;28;20214;-74
2023/10/17 12:28:41;;;;;;;4.97;3.47;;;9.30;99.90;;;;;;5006812;28;20219;-75
2023/10/17 12:31:11;;;;;;;6.67;3.60;;;9.30;99.90;;;;;;4973585;28;20468;-74
2023/10/17 12:33:36;;;;;;;3.80;2.77;;;9.30;99.90;;;;;;4973143;28;20535;-75
2023/10/17 12:36:04;;;;;;;4.93;2.90;;;9.30;99.90;;;;;;4976952;28;21006;-73
2023/10/17 12:38:33;;;;;;;2.67;2.47;;;9.40;99.90;;;;;;4969333;28;20222;-72
2023/10/17 12:41:09;;;;;;;3.73;2.83;;;9.40;99.90;;;;;;4970627;28;20496;-77
2023/10/17 12:43:35;;;;;;;4.83;2.80;;;9.50;99.90;;;;;;5003996;28;20453;-73
2023/10/17 12:46:02;;;;;;;3.00;2.70;;;9.40;99.90;;;;;;4976243;28;20512;-72
2023/10/17 12:48:28;;;;;;;3.37;2.60;;;9.50;99.90;;;;;;4966608;28;20465;-72
2023/10/17 12:50:54;;;;;;;3.30;2.60;;;9.70;99.90;;;;;;4973386;28;20492;-74
2023/10/17 12:53:19;;;;;;;4.27;2.33;;;9.70;99.90;;;;;;4970483;28;20470;-75
2023/10/17 12:55:45;;;;;;;3.60;2.90;;;9.70;99.90;;;;;;4971866;28;20599;-73
2023/10/17 12:58:11;;;;;;;3.27;2.93;;;9.70;99.90;;;;;;4973398;28;20227;-73
2023/10/17 13:00:41;;;;;;;2.43;2.07;;;9.70;99.90;;;;;;4978351;28;20210;-74
2023/10/17 13:03:07;;;;;;;3.27;2.93;;;9.80;99.90;;;;;;4985984;28;20244;-73
2023/10/17 13:05:33;;;;;;;2.70;2.40;;;9.80;99.90;;;;;;4979390;28;20489;-75
2023/10/17 13:07:59;;;;;;;4.10;2.77;;;9.80;99.90;;;;;;4973826;28;20704;-73
2023/10/17 13:10:26;;;;;;;5.20;3.10;;;9.90;99.90;;;;;;4973077;28;20454;-74
2023/10/17 13:12:52;;;;;;;3.00;2.50;;;9.90;99.90;;;;;;4972682;28;20371;-74
2023/10/17 13:15:17;;;;;;;7.07;2.90;;;9.90;99.90;;;;;;4971149;28;20481;-74
2023/10/17 13:17:44;;;;;;;3.37;2.20;;;10.00;99.90;;;;;;4976178;28;20218;-73
2023/10/17 13:20:10;;;;;;;3.30;2.53;;;10.00;99.90;;;;;;4973046;28;20466;-74
2023/10/17 13:22:46;;;;;;;3.20;2.83;;;10.00;99.90;;;;;;4973871;28;20510;-71
2023/10/17 13:25:13;;;;;;;2.10;1.90;;;10.00;99.90;;;;;;4969769;28;20481;-75
2023/10/17 13:27:38;;;;;;;4.87;2.70;;;10.00;99.90;;;;;;4966074;28;20454;-74
2023/10/17 13:30:06;;;;;;;3.77;2.17;;;10.10;99.90;;;;;;4974777;28;20485;-75
2023/10/17 13:32:32;;;;;;;4.53;2.57;;;10.20;99.90;;;;;;4972171;28;20708;-74
2023/10/17 13:34:58;;;;;;;3.10;2.13;;;10.30;99.90;;;;;;4970775;28;20479;-72
2023/10/17 13:37:24;;;;;;;3.40;2.73;;;10.30;99.90;;;;;;4972577;28;20480;-72
2023/10/17 13:39:52;;;;;;;3.20;2.50;;;10.30;99.90;;;;;;4975018;28;20256;-73
2023/10/17 13:42:17;;;;;;;2.90;2.57;;;10.30;99.90;;;;;;4969904;28;20477;-75
2023/10/17 13:44:43;;;;;;;2.40;2.20;;;10.30;99.90;;;;;;4976810;28;20222;-74
2023/10/17 13:47:09;;;;;;;4.43;2.50;;;10.30;99.90;;;;;;4971778;28;20856;-73
2023/10/17 13:49:35;;;;;;;3.63;2.40;;;10.40;99.90;;;;;;4976490;28;20527;-74
2023/10/17 13:52:00;;;;;;;5.20;2.90;;;10.40;99.90;;;;;;4973087;28;20272;-75
2023/10/17 13:54:27;;;;;;;2.40;2.20;;;10.40;99.90;;;;;;4983520;28;20226;-74
2023/10/17 13:56:54;;;;;;;2.33;2.10;;;10.40;99.90;;;;;;4995160;28;20210;-75
2023/10/17 13:59:38;;;;;;;3.17;2.97;;;10.50;99.90;;;;;;4977920;28;20478;-72
2023/10/17 14:02:07;;;;;;;3.60;2.97;;;10.50;99.90;;;;;;4970282;28;20482;-72
2023/10/17 14:04:36;;;;;;;3.50;2.30;;;10.50;99.90;;;;;;4984978;28;20466;-73
2023/10/17 14:07:05;;;;;;;2.90;2.20;;;10.50;99.90;;;;;;4975463;28;20466;-72
2023/10/17 14:09:32;;;;;;;3.10;2.20;;;10.60;99.90;;;;;;4990666;28;20469;-74
2023/10/17 14:11:58;;;;;;;5.17;3.60;;;10.50;99.90;;;;;;4981084;28;20462;-75
2023/10/17 14:14:29;;;;;;;13.43;8.73;;;10.60;99.90;;;;;;4976361;28;20994;-74
2023/10/17 14:16:58;;;;;;;14.23;8.23;;;10.60;99.90;;;;;;4979758;28;20518;-74
2023/10/17 14:22:21;;;;;;;11.23;7.70;;;10.60;99.90;;;;;;4978085;28;20493;-73
2023/10/17 14:27:20;;;;;;;8.20;5.60;;;10.70;99.90;;;;;;4976397;28;20528;-74
2023/10/17 14:29:50;;;;;;;14.60;7.93;;;10.80;99.90;;;;;;4983482;28;20572;-74
2023/10/17 14:32:17;;;;;;;10.33;6.23;;;10.80;99.90;;;;;;4979705;28;20469;-74
2023/10/17 14:34:43;;;;;;;11.13;10.03;;;10.80;99.90;;;;;;4982430;28;20477;-74
2023/10/17 14:37:10;;;;;;;11.47;10.37;;;10.90;99.90;;;;;;4976649;28;20484;-72
2023/10/17 14:39:36;;;;;;;11.17;10.17;;;11.00;99.90;;;;;;4983047;28;21014;-74
2023/10/17 14:42:03;;;;;;;15.53;12.07;;;11.00;99.90;;;;;;4982388;28;20543;-75
2023/10/17 14:44:29;;;;;;;12.77;11.57;;;10.90;99.90;;;;;;4988011;28;20482;-75
2023/10/17 14:46:57;;;;;;;9.50;8.50;;;10.90;99.90;;;;;;4984641;28;20473;-75
2023/10/17 14:49:24;;;;;;;6.03;5.43;;;11.00;99.90;;;;;;4976710;28;20294;-74
2023/10/17 14:51:50;;;;;;;5.83;4.60;;;11.00;99.90;;;;;;4980271;28;20468;-74
2023/10/17 14:54:15;;;;;;;5.83;4.77;;;10.90;99.90;;;;;;4977731;28;20556;-74
2023/10/17 14:56:42;;;;;;;6.30;4.70;;;10.90;99.90;;;;;;5001737;28;20225;-74
2023/10/17 14:59:08;;;;;;;4.73;4.30;;;10.90;99.90;;;;;;4999686;28;20221;-74
2023/10/17 15:01:35;;;;;;;4.23;3.73;;;10.90;99.90;;;;;;5001266;28;20843;-71
2023/10/17 15:04:01;;;;;;;4.33;3.90;;;10.90;99.90;;;;;;4988532;28;21005;-74
2023/10/17 15:06:27;;;;;;;4.00;3.70;;;11.00;99.90;;;;;;4977210;28;20465;-74
2023/10/17 15:08:53;;;;;;;4.20;3.80;;;11.10;99.90;;;;;;4981585;28;20225;-75
2023/10/17 15:11:20;;;;;;;4.30;3.77;;;11.10;99.90;;;;;;5012651;28;20462;-74
2023/10/17 15:13:46;;;;;;;3.93;3.47;;;11.10;99.90;;;;;;4981723;28;20226;-75
2023/10/17 15:16:21;;;;;;;2.93;2.73;;;10.90;99.90;;;;;;4973259;28;20457;-75
2023/10/17 15:18:47;;;;;;;3.17;2.90;;;10.90;99.90;;;;;;4974928;28;20218;-75
2023/10/17 15:21:15;;;;;;;4.00;3.17;;;10.90;99.90;;;;;;4974720;28;20642;-74
2023/10/17 15:23:42;;;;;;;4.03;3.67;;;10.90;99.90;;;;;;4984549;28;20457;-74
2023/10/17 15:26:12;;;;;;;4.60;3.40;;;10.90;99.90;;;;;;4980514;28;20515;-72
2023/10/17 15:28:45;;;;;;;5.30;3.37;;;10.90;99.90;;;;;;4986602;28;20461;-74
2023/10/17 15:31:11;;;;;;;6.80;4.40;;;10.90;99.90;;;;;;4977979;28;20482;-73
2023/10/17 15:33:38;;;;;;;4.60;4.10;;;11.00;99.90;;;;;;4981242;28;20468;-74
2023/10/17 15:36:12;;;;;;;7.17;5.50;;;11.00;99.90;;;;;;4962781;28;20569;-73